Main page
METAR-TAF:

METAR-TAF

Airports :

Liverpool John Lennon Airport

Liverpool, England

latitude: 53-20N, longitude: 002-51W, elevation: 26 m

Current weather observation

The report was made 19 minutes ago, at 04:20 UTC
Wind 7 kt from the West
Temperature 16°C
Humidity 88%
Pressure 1015 hPa
Visibility 10 km or more
Scattered clouds at a height of 2200 ft
Broken clouds at a height of 2800 ft

METAR: EGGP 220420Z 26007KT 9999 SCT022 BKN028 16/14 Q1015

Time: 05:39 (04:39 UTC)

Forecast

The report was made 5 hours and 46 minutes ago, at 22:53 UTC
Forecast valid from 22 at 00 UTC to 22 at 24 UTC
Wind 8 kt from the West/Northwest
Visibility 10 km or more
Scattered clouds at a height of 2000 ft
Temporary
from 22 at 03 UTC to 22 at 14 UTC
Broken clouds at a height of 1000 ft
Probability 30% :
Temporary
from 22 at 06 UTC to 22 at 10 UTC
Visibility: 4000 m
Broken clouds at a height of 500 ft
light drizzle

TAF: EGGP 212253Z 2200/2224 29008KT 9999 SCT020 TEMPO 2203/2214 BKN010 PROB30 TEMPO 2206/2210 4000 -DZ BKN005

Weather observations and forecasts of more than 4000 airports (METAR and TAF reports).

The available stations are represented by yellow and red dots on the map.

Hover mouse over dot to see the name of the station.

Then click to see weather observations and forecasts.

To change the map : click on the green buttons with a black cross to zoom in, on the green button with a dash to zoom out, or on the green arrows for adjacent maps.


METAR-TAF: